Flight Track Log - Related Links

Times and Time Zones

All times are in EDT time to prevent confusion due to time zone crossing. See the CHH7162 flight status page for this flight to view local times or setup timezone preferences in your user account.

Time Position Orientation Groundspeed Altitude Reporting Facility
EDT Latitude Longitude Course Direction KTS MPH feet Rate Location/Type
Fri 06:05:00 AM 29.8088 106.7144 35° Northeast  Level Estimated
Fri 06:06:00 AM 29.8981 106.7879 35° Northeast  Level Estimated
Fri 06:07:00 AM 29.9874 106.8615 36° Northeast  Level Estimated
Fri 06:08:00 AM 30.0767 106.9353 36° Northeast  Level Estimated
Fri 06:09:00 AM 30.1659 107.0092 36° Northeast  Level Estimated
Fri 06:10:00 AM 30.2551 107.0832 36° Northeast  Level Estimated
Fri 06:11:00 AM 30.3442 107.1574 36° Northeast  Level Estimated
Fri 06:12:00 AM 30.4333 107.2317 36° Northeast  Level Estimated
Fri 06:13:00 AM 30.5224 107.3062 36° Northeast  Level Estimated
Fri 06:14:00 AM 30.6114 107.3807 36° Northeast  Level Estimated
Fri 06:15:00 AM 30.7003 107.4555 36° Northeast  Level Estimated
Fri 06:16:00 AM 30.7893 107.5303 36° Northeast  Level Estimated
Fri 06:17:00 AM 30.8782 107.6053 36° Northeast  Level Estimated
Fri 06:18:00 AM 30.9670 107.6804 36° Northeast  Level Estimated
Fri 06:19:00 AM 31.0558 107.7557 36° Northeast  Level Estimated
Fri 06:20:00 AM 31.1446 107.8311 36° Northeast  Level Estimated
Fri 06:21:00 AM 31.2333 107.9067 36° Northeast  Level Estimated
Fri 06:22:00 AM 31.3219 107.9824 36° Northeast  Level Estimated
Fri 06:23:00 AM 31.4105 108.0582 36° Northeast  Level Estimated
Fri 06:24:00 AM 31.4991 108.1342 36° Northeast  Level Estimated
Fri 06:25:00 AM 31.5877 108.2103 36° Northeast  Level Estimated
Fri 06:26:00 AM 31.6761 108.2866 36° Northeast  Level Estimated
Fri 06:27:00 AM 31.7646 108.3630 36° Northeast  Level Estimated
Fri 06:28:00 AM 31.8530 108.4396 36° Northeast  Level Estimated
Fri 06:29:00 AM 31.9413 108.5163 36° Northeast  Level Estimated
Fri 06:30:00 AM 32.0296 108.5931 36° Northeast  Level Estimated
Fri 06:31:00 AM 32.1179 108.6701 36° Northeast  Level Estimated
Fri 06:32:00 AM 32.2061 108.7473 36° Northeast  Level Estimated
Fri 06:33:00 AM 32.2943 108.8246 37° Northeast  Level Estimated
Fri 06:34:00 AM 32.3824 108.9020 37° Northeast  Level Estimated
Fri 06:35:00 AM 32.4705 108.9796 37° Northeast  Level Estimated
Fri 06:36:00 AM 32.5585 109.0574 37° Northeast  Level Estimated
Fri 06:37:00 AM 32.6464 109.1353 37° Northeast  Level Estimated
Fri 06:38:00 AM 32.7344 109.2133 37° Northeast  Level Estimated
Fri 06:39:00 AM 32.8222 109.2916 37° Northeast  Level Estimated
Fri 06:40:00 AM 32.9101 109.3699 37° Northeast  Level Estimated
Fri 06:41:00 AM 32.9978 109.4485 37° Northeast  Level Estimated
Fri 06:42:00 AM 33.0856 109.5272 37° Northeast  Level Estimated
Fri 06:43:00 AM 33.1733 109.6060 37° Northeast  Level Estimated
Fri 06:44:00 AM 33.2609 109.6850 37° Northeast  Level Estimated
Fri 06:45:00 AM 33.3485 109.7642 37° Northeast  Level Estimated
Fri 06:46:00 AM 33.4360 109.8435 37° Northeast  Level Estimated
Fri 06:47:00 AM 33.5235 109.9230 37° Northeast  Level Estimated
Fri 06:48:00 AM 33.6109 110.0026 37° Northeast  Level Estimated
Fri 06:49:00 AM 33.6983 110.0824 37° Northeast  Level Estimated
Fri 06:50:00 AM 33.7856 110.1624 37° Northeast  Level Estimated
Fri 06:51:00 AM 33.8729 110.2425 37° Northeast  Level Estimated
Fri 06:52:00 AM 33.9601 110.3228 37° Northeast  Level Estimated
Fri 06:53:00 AM 34.0473 110.4032 37° Northeast  Level Estimated
Fri 06:54:00 AM 34.1344 110.4838 37° Northeast  Level Estimated
Fri 06:55:00 AM 34.2215 110.5646 37° Northeast  Level Estimated
Fri 06:56:00 AM 34.3085 110.6456 38° Northeast  Level Estimated
Fri 06:57:00 AM 34.3954 110.7267 38° Northeast  Level Estimated
Fri 06:58:00 AM 34.4823 110.8080 38° Northeast  Level Estimated
Fri 06:59:00 AM 34.5692 110.8894 38° Northeast  Level Estimated
Fri 07:00:00 AM 34.6560 110.9711 38° Northeast  Level Estimated
Fri 07:01:00 AM 34.7427 111.0529 38° Northeast  Level Estimated
Fri 07:02:00 AM 34.8294 111.1348 38° Northeast  Level Estimated
Fri 07:03:00 AM 34.9160 111.2170 38° Northeast  Level Estimated
Fri 07:04:00 AM 35.0026 111.2993 38° Northeast  Level Estimated
Fri 07:05:00 AM 35.0891 111.3818 38° Northeast  Level Estimated
Fri 07:06:00 AM 35.1756 111.4645 38° Northeast  Level Estimated
Fri 07:07:00 AM 35.2620 111.5473 38° Northeast  Level Estimated
Fri 07:08:00 AM 35.3484 111.6303 38° Northeast  Level Estimated
Fri 07:09:00 AM 35.4346 111.7135 38° Northeast  Level Estimated
Fri 07:10:00 AM 35.5209 111.7969 38° Northeast  Level Estimated
Fri 07:11:00 AM 35.6071 111.8805 38° Northeast  Level Estimated
Fri 07:12:00 AM 35.6932 111.9642 38° Northeast  Level Estimated
Fri 07:13:00 AM 35.7792 112.0481 38° Northeast  Level Estimated
Fri 07:14:00 AM 35.8652 112.1322 38° Northeast  Level Estimated
Fri 07:15:00 AM 35.9512 112.2165 38° Northeast  Level Estimated
Fri 07:16:00 AM 36.0371 112.3010 38° Northeast  Level Estimated
Fri 07:17:00 AM 36.1229 112.3856 39° Northeast  Level Estimated
Fri 07:18:00 AM 36.2087 112.4704 39° Northeast  Level Estimated
Fri 07:19:00 AM 36.2944 112.5555 39° Northeast  Level Estimated
Fri 07:20:00 AM 36.3801 112.6407 39° Northeast  Level Estimated
Fri 07:21:00 AM 36.4656 112.7261 39° Northeast  Level Estimated
Fri 07:22:00 AM 36.5512 112.8117 39° Northeast  Level Estimated
Fri 07:23:00 AM 36.6366 112.8974 39° Northeast  Level Estimated
Fri 07:24:00 AM 36.7149 112.9762 39° Northeast  Level Estimated
Fri 07:25:00 AM 36.7930 113.0551 39° Northeast  Level Estimated
Fri 07:26:00 AM 36.8712 113.1341 39° Northeast  Level Estimated
Fri 07:27:00 AM 36.9492 113.2133 39° Northeast  Level Estimated
Fri 07:28:00 AM 37.0273 113.2927 39° Northeast  Level Estimated
Fri 07:29:00 AM 37.1052 113.3723 39° Northeast  Level Estimated
Fri 07:30:00 AM 37.1832 113.4520 39° Northeast  Level Estimated
Fri 07:31:00 AM 37.2610 113.5319 39° Northeast  Level Estimated
Fri 07:32:00 AM 37.3388 113.6119 39° Northeast  Level Estimated
Fri 07:33:00 AM 37.4166 113.6921 39° Northeast  Level Estimated
Fri 07:34:00 AM 37.4943 113.7725 39° Northeast  Level Estimated
Fri 07:35:00 AM 37.5719 113.8530 39° Northeast  Level Estimated
Fri 07:36:00 AM 37.6495 113.9337 39° Northeast  Level Estimated
Fri 07:37:00 AM 37.7271 114.0146 40° Northeast  Level Estimated
Fri 07:38:00 AM 37.8046 114.0957 40° Northeast  Level Estimated
Fri 07:39:00 AM 37.8820 114.1769 40° Northeast  Level Estimated
Fri 07:40:00 AM 37.9594 114.2583 40° Northeast  Level Estimated
Fri 07:41:00 AM 38.0367 114.3398 40° Northeast  Level Estimated
Fri 07:42:00 AM 38.1139 114.4216 40° Northeast  Level Estimated
Fri 07:43:00 AM 38.1911 114.5035 40° Northeast  Level Estimated
Fri 07:44:00 AM 38.2683 114.5855 40° Northeast  Level Estimated
Fri 07:45:00 AM 38.3454 114.6678 40° Northeast  Level Estimated
Fri 07:46:00 AM 38.4224 114.7502 40° Northeast  Level Estimated
Fri 07:47:00 AM 38.4994 114.8328 40° Northeast  Level Estimated
Fri 07:48:00 AM 38.5763 114.9156 40° Northeast  Level Estimated
Fri 07:49:00 AM 38.6531 114.9986 40° Northeast  Level Estimated
Fri 07:50:00 AM 38.7299 115.0817 40° Northeast  Level Estimated
Fri 07:51:00 AM 38.8067 115.1650 40° Northeast  Level Estimated
Fri 07:52:00 AM 38.8834 115.2485 40° Northeast  Level Estimated
Fri 07:53:00 AM 38.9600 115.3322 40° Northeast  Level Estimated
Fri 07:54:00 AM 39.0365 115.4161 40° Northeast  Level Estimated
Fri 07:55:00 AM 39.1130 115.5001 40° Northeast  Level Estimated
Fri 07:56:00 AM 39.1895 115.5843 40° Northeast  Level Estimated
Fri 07:57:00 AM 39.2659 115.6687 41° Northeast  Level Estimated
Fri 07:58:00 AM 39.3422 115.7533 41° Northeast  Level Estimated
Fri 07:59:00 AM 39.4184 115.8381 41° Northeast  Level Estimated
Fri 08:00:00 AM 39.4946 115.9231 41° Northeast  Level Estimated
Fri 08:01:00 AM 39.5708 116.0082 41° Northeast  Level Estimated
Fri 08:02:00 AM 39.6468 116.0935 41° Northeast  Level Estimated
Fri 08:03:00 AM 39.7229 116.1791 41° Northeast  Level Estimated
Fri 08:04:00 AM 39.7988 116.2648 41° Northeast  Level Estimated
Fri 08:05:00 AM 39.8747 116.3507 41° Northeast  Level Estimated
Fri 08:06:00 AM 39.9505 116.4368 41° Northeast  Level Estimated
Fri 08:07:00 AM 40.0262 116.5230 41° Northeast  Level Estimated
Fri 08:08:00 AM 40.0801 116.5846 41° Northeast  Level Estimated
Fri 08:09:00 AM 40.0801 116.5846 288° West  Level Estimated
Fri 08:10:00 AM 40.0801 116.5846 288° West  Level Estimated
Fri 08:11:00 AM 40.0801 116.5846 288° West  Level Estimated
Fri 08:12:00 AM 40.0801 116.5846 288° West  Level Estimated
Fri 08:13:00 AM 40.0801 116.5846 288° West  Level Estimated
Fri 08:14:00 AM 40.0801 116.5846 288° West  Level Estimated
Fri 08:15:00 AM 40.0801 116.5846 288° West  Level Estimated
Fri 08:16:00 AM 40.0801 116.5846 288° West  Level Estimated
Fri 08:17:00 AM 40.0801 116.5846 288° West  Level Estimated
Fri 08:18:00 AM 40.0801 116.5846 288° West  Level Estimated
Fri 08:19:00 AM 40.0801 116.5846 288° West  Level Estimated
Fri 08:20:00 AM 40.0801 116.5846 288° West  Level Estimated
Fri 08:21:00 AM 40.0801 116.5846 288° West  Level Estimated
Fri 08:22:00 AM 40.0801 116.5846 288° West  Level Estimated
Fri 08:23:00 AM 40.0801 116.5846 288° West  Level Estimated
Fri 08:24:00 AM 40.0801 116.5846 288° West  Level Estimated
Fri 08:25:00 AM 40.0801 116.5846 288° West  Level Estimated
Fri 08:26:00 AM 40.0801 116.5846 288° West  Level Estimated
Fri 08:27:00 AM 40.0801 116.5846 288° West  Level Estimated
Fri 08:28:00 AM 40.0801 116.5846 288° West  Level Estimated
Fri 08:29:00 AM 40.0801 116.5846 288° West  Level Estimated
Fri 08:30:00 AM 40.0801 116.5846 288° West  Level Estimated
Fri 08:31:00 AM 40.0801 116.5846 288° West  Level Estimated
Fri 08:32:00 AM 40.0801 116.5846 288° West  Level Estimated
Fri 08:33:00 AM 40.0801 116.5846 288° West  Level Estimated
Fri 08:34:00 AM 40.0801 116.5846 288° West  Level Estimated
Fri 08:35:00 AM 40.0801 116.5846 288° West  Level Estimated
Fri 08:36:00 AM 40.0801 116.5846 288° West  Level Estimated
Fri 08:37:00 AM 40.0801 116.5846 288° West  Level Estimated
Fri 08:38:00 AM 40.0801 116.5846 288° West  Level Estimated
Fri 08:39:00 AM 40.0801 116.5846 288° West  Level Estimated
Fri 08:40:00 AM 40.0801 116.5846 288° West  Level Estimated
Fri 08:41:00 AM 40.0801 116.5846 288° West  Level Estimated
Fri 08:42:00 AM 40.0801 116.5846 288° West  Level Estimated
Fri 08:43:00 AM 40.0801 116.5846 288° West  Level Estimated
Fri 08:44:00 AM 40.0801 116.5846 288° West  Level Estimated
Fri 08:45:00 AM 40.0801 116.5846 288° West  Level Estimated
Fri 08:46:00 AM 40.0801 116.5846 288° West  Level Estimated
Fri 08:47:00 AM 40.0801 116.5846 288° West  Level Estimated
Fri 08:48:00 AM 40.0801 116.5846 288° West  Level Estimated
Fri 08:49:00 AM 40.0801 116.5846 288° West  Level Estimated
Fri 08:50:00 AM 40.0801 116.5846 288° West  Level Estimated
Fri 08:51:00 AM 40.0801 116.5846 288° West  Level Estimated
Fri 08:52:00 AM 40.0801 116.5846 288° West  Level Estimated
Fri 08:53:00 AM 40.0801 116.5846 288° West  Level Estimated
Fri 08:54:00 AM 40.0801 116.5846 288° West  Level Estimated
Fri 08:55:00 AM 40.0801 116.5846 288° West  Level Estimated
Fri 08:56:00 AM 40.0801 116.5846 288° West  Level Estimated
Fri 08:57:00 AM 40.0801 116.5846 288° West  Level Estimated
Fri 08:58:00 AM 40.0801 116.5846 288° West  Level Estimated
Fri 08:59:00 AM 40.0801 116.5846 288° West  Level Estimated
Fri 09:00:00 AM 40.0801 116.5846 288° West  Level Estimated
Fri 09:01:00 AM 40.0801 116.5846 288° West  Level Estimated
Fri 09:02:00 AM 40.0801 116.5846 288° West  Level Estimated
Fri 09:03:00 AM 40.0801 116.5846 288° West  Level Estimated
Fri 09:04:00 AM 40.0801 116.5846 288° West  Level Estimated
Fri 09:05:00 AM 40.0801 116.5846 288° West  Level Estimated
Fri 09:06:00 AM 40.0801 116.5846 288° West  Level Estimated
Fri 09:07:00 AM 40.0801 116.5846 288° West  Level Estimated
Fri 09:08:00 AM 40.0801 116.5846 288° West  Level Estimated
Fri 09:09:00 AM 40.0801 116.5846 288° West  Level Estimated
Fri 09:10:00 AM 40.0801 116.5846 288° West  Level Estimated
Fri 09:10:32 AM 39.9490 116.5940 288° West 193 222 2,500  Level FlightAware ADS-B
Fri 09:10:57 AM 39.9700 116.5900 352° North 193 222 2,500 -776 Level FlightAware ADS-B
Fri 09:11:00 AM 40.0801 116.5846 288° West  Level Estimated
Fri 09:11:57 AM 40.0190 116.5830 354° North 172 198 1,400  Level FlightAware ADS-B
Fri 09:14:00 AM 40.0801 116.5846 North  Level Estimated
Fri 09:15:00 AM 40.0801 116.5846 288° West  Level Estimated
Fri 09:16:00 AM 40.0801 116.5846 288° West  Level Estimated
Fri 09:17:00 AM 40.0801 116.5846 288° West  Level Estimated
Fri 09:18:00 AM 40.0801 116.5846 288° West  Level Estimated
Fri 09:19:00 AM 40.0801 116.5846 288° West  Level Estimated
Fri 09:20:00 AM 40.0801 116.5846 288° West  Level Estimated

Login

Don't have an account? Register now (free) for customized features, flight alerts, and more!